Main page
METAR-TAF:

METAR-TAF

Airports :

Niederstetten Air Base

Niederstetten, Germany

latitude: 49-24N, longitude: 009-58E, elevation: 468 m

Current weather observation

The report was made 1 hour and 7 minutes ago, at 23:20 UTC
Wind 13 kt from the Southeast
Temperature 0°C
Humidity 93%
Pressure 1017 hPa
Visibility: 8000 m
Broken clouds at a height of 30000 ft

METAR: ETHN 182320Z 14013KT 8000 BKN300 M00/M01 Q1017 BLU+

Time: 01:27 (00:27 UTC)

Forecast

The report was made 8 hours and 28 minutes ago, at 15:59 UTC
Forecast valid from 18 at 15 UTC to 18 at 24 UTC
Wind 10 kt from the Southeast
Visibility 10 km or more
Scattered clouds at a height of 1500 ft
Temporary
from 18 at 15 UTC to 18 at 24 UTC
Wind 5 kt from the East/Southeast
Visibility: 1600 m
Scattered clouds at a height of 1500 ft
Shallow fog

TAF: ETHN 181559Z 1815/1824 14010KT 9999 NSW SCT015 TEMPO 1815/1824 12005KT 7000 MIFG SCT015 CANCEL 1600

Weather observations and forecasts of more than 4000 airports (METAR and TAF reports).

The available stations are represented by yellow and red dots on the map.

Hover mouse over dot to see the name of the station.

Then click to see weather observations and forecasts.

To change the map : click on the green buttons with a black cross to zoom in, on the green button with a dash to zoom out, or on the green arrows for adjacent maps.


METAR-TAF: